International Virtual Aviation Organisation

Eastern Europe and Northern Asia MCD

 

Карточка аэропорта UOOO

Внимание!
Информация на этой странице в стадии наполнения.
Если вы не увидели какой-то информации, или заметили неточность - пожалуйста сообщите нам!
Спасибо!
Команда RU-STAFF
Название аэропортаАлыкель
Название аэропорта (англ.)Alykel
Превышение574 ft. (175 m.)
Координаты69°19.02', 87°19.02'
Высота перехода1200m
Эшелон переходаQFE>744:FL60;744>QFE>717:FL70;717>QFE:FL80
Коды ответчика5401-5427
Зона ОрВДКрасноярск РПИ (UNKL)
Данные METARUOOO 101100Z 18013MPS 7000 -SN BLSN BKN031 00/M01 Q1024 R19/590345 NOSIG RMK QFE752/1002
Проноз погоды (TAF)UOOO 100759Z 1009/1109 17013G20MPS 2100 -SN BLSN BKN016 TEMPO 1009/1012 0700 -SN BLSN FM101200 17016G23MPS 1000 -SN BLSN OVC007 TEMPO 1012/1017 0300 SN BLSN VV003 BECMG 1015/1017 23011G17MPS BECMG 1019/1021 30006G12MPS 2100 -SN BR TEMPO 1021/1024 0500 SN FZFG VV002 BECMG 1100/1102 23005G10MPS 2500 BR
NOTAMshow/hide NOTAM
AWOS   TABLE

Информация о ВПП

ВПП Длина ВПП (м.) Покрытие Курс ВПП Частота ILS
013430Бетон13109.5
193430Бетон193110.3

Диспетчерские позиции

Позывной Наименование органа УВД Частота
UOOO_GNDНорильск - Руление121.700
UOOO_TWRНорильск - Старт118.300
UOOO_APPНорильск - Круг120.400



Спутниковое изображение